sensor_id;sensor_type;location;lat;lon;timestamp;temperature;humidity
15426;DHT22;7812;50.072;7.036;2024-01-30T00:02:06;3.50;99.90
15426;DHT22;7812;50.072;7.036;2024-01-30T00:04:32;3.50;99.90
15426;DHT22;7812;50.072;7.036;2024-01-30T00:06:58;3.60;99.90
15426;DHT22;7812;50.072;7.036;2024-01-30T00:09:23;3.80;99.90
15426;DHT22;7812;50.072;7.036;2024-01-30T00:11:49;3.80;99.90
15426;DHT22;7812;50.072;7.036;2024-01-30T00:14:15;3.90;99.90
15426;DHT22;7812;50.072;7.036;2024-01-30T00:16:40;4.00;99.90
15426;DHT22;7812;50.072;7.036;2024-01-30T00:19:06;4.00;99.90
15426;DHT22;7812;50.072;7.036;2024-01-30T00:21:33;3.90;99.90
15426;DHT22;7812;50.072;7.036;2024-01-30T00:23:59;3.80;99.90
15426;DHT22;7812;50.072;7.036;2024-01-30T00:26:25;3.70;99.90
15426;DHT22;7812;50.072;7.036;2024-01-30T00:28:51;3.60;99.90
15426;DHT22;7812;50.072;7.036;2024-01-30T00:31:16;3.70;99.90
15426;DHT22;7812;50.072;7.036;2024-01-30T00:33:42;3.80;99.90
15426;DHT22;7812;50.072;7.036;2024-01-30T00:36:09;4.00;99.90
15426;DHT22;7812;50.072;7.036;2024-01-30T00:38:35;4.10;99.90
15426;DHT22;7812;50.072;7.036;2024-01-30T00:41:01;4.00;99.90
15426;DHT22;7812;50.072;7.036;2024-01-30T00:43:29;4.00;99.90
15426;DHT22;7812;50.072;7.036;2024-01-30T00:45:56;3.90;99.90
15426;DHT22;7812;50.072;7.036;2024-01-30T00:48:22;3.80;99.90
15426;DHT22;7812;50.072;7.036;2024-01-30T00:50:48;3.60;99.90
15426;DHT22;7812;50.072;7.036;2024-01-30T00:53:14;3.60;99.90
15426;DHT22;7812;50.072;7.036;2024-01-30T00:55:39;3.50;99.90
15426;DHT22;7812;50.072;7.036;2024-01-30T00:58:05;3.20;99.90
15426;DHT22;7812;50.072;7.036;2024-01-30T01:00:32;3.20;99.90
15426;DHT22;7812;50.072;7.036;2024-01-30T01:02:58;3.40;99.90
15426;DHT22;7812;50.072;7.036;2024-01-30T01:05:24;3.60;99.90
15426;DHT22;7812;50.072;7.036;2024-01-30T01:07:50;3.70;99.90
15426;DHT22;7812;50.072;7.036;2024-01-30T01:10:19;3.70;99.90
15426;DHT22;7812;50.072;7.036;2024-01-30T01:12:45;3.70;99.90
15426;DHT22;7812;50.072;7.036;2024-01-30T01:15:11;3.80;99.90
15426;DHT22;7812;50.072;7.036;2024-01-30T01:17:40;3.70;99.90
15426;DHT22;7812;50.072;7.036;2024-01-30T01:20:07;3.50;99.90
15426;DHT22;7812;50.072;7.036;2024-01-30T01:22:33;3.20;99.90
15426;DHT22;7812;50.072;7.036;2024-01-30T01:25:00;3.10;99.90
15426;DHT22;7812;50.072;7.036;2024-01-30T01:27:44;3.10;99.90
15426;DHT22;7812;50.072;7.036;2024-01-30T01:30:16;3.20;99.90
15426;DHT22;7812;50.072;7.036;2024-01-30T01:32:50;3.20;99.90
15426;DHT22;7812;50.072;7.036;2024-01-30T01:35:21;3.20;99.90
15426;DHT22;7812;50.072;7.036;2024-01-30T01:37:48;3.30;99.90
15426;DHT22;7812;50.072;7.036;2024-01-30T01:40:21;3.30;99.90
15426;DHT22;7812;50.072;7.036;2024-01-30T01:42:47;3.40;99.90
15426;DHT22;7812;50.072;7.036;2024-01-30T01:45:13;3.50;99.90
15426;DHT22;7812;50.072;7.036;2024-01-30T01:47:39;3.50;99.90
15426;DHT22;7812;50.072;7.036;2024-01-30T01:50:05;3.40;99.90
15426;DHT22;7812;50.072;7.036;2024-01-30T01:52:31;3.30;99.90
15426;DHT22;7812;50.072;7.036;2024-01-30T01:54:57;3.40;99.90
15426;DHT22;7812;50.072;7.036;2024-01-30T01:57:23;3.40;99.90
15426;DHT22;7812;50.072;7.036;2024-01-30T02:03:10;3.50;99.90
15426;DHT22;7812;50.072;7.036;2024-01-30T02:05:38;3.10;99.90
15426;DHT22;7812;50.072;7.036;2024-01-30T02:08:05;3.10;99.90
15426;DHT22;7812;50.072;7.036;2024-01-30T02:10:31;3.30;99.90
15426;DHT22;7812;50.072;7.036;2024-01-30T02:12:56;3.50;99.90
15426;DHT22;7812;50.072;7.036;2024-01-30T02:15:22;3.50;99.90
15426;DHT22;7812;50.072;7.036;2024-01-30T02:17:48;3.40;99.90
15426;DHT22;7812;50.072;7.036;2024-01-30T02:20:14;3.40;99.90
15426;DHT22;7812;50.072;7.036;2024-01-30T02:22:40;3.40;99.90
15426;DHT22;7812;50.072;7.036;2024-01-30T02:25:07;3.20;99.90
15426;DHT22;7812;50.072;7.036;2024-01-30T02:27:32;3.20;99.90
15426;DHT22;7812;50.072;7.036;2024-01-30T02:29:58;3.20;99.90
15426;DHT22;7812;50.072;7.036;2024-01-30T02:32:24;3.10;99.90
15426;DHT22;7812;50.072;7.036;2024-01-30T02:34:50;3.20;99.90
15426;DHT22;7812;50.072;7.036;2024-01-30T02:37:16;3.20;99.90
15426;DHT22;7812;50.072;7.036;2024-01-30T02:39:42;3.10;99.90
15426;DHT22;7812;50.072;7.036;2024-01-30T02:42:08;3.00;99.90
15426;DHT22;7812;50.072;7.036;2024-01-30T02:44:33;2.70;99.90
15426;DHT22;7812;50.072;7.036;2024-01-30T02:46:59;2.70;99.90
15426;DHT22;7812;50.072;7.036;2024-01-30T02:49:25;2.90;99.90
15426;DHT22;7812;50.072;7.036;2024-01-30T02:51:52;3.20;99.90
15426;DHT22;7812;50.072;7.036;2024-01-30T02:54:18;3.30;99.90
15426;DHT22;7812;50.072;7.036;2024-01-30T02:56:43;3.30;99.90
15426;DHT22;7812;50.072;7.036;2024-01-30T02:59:09;3.20;99.90
15426;DHT22;7812;50.072;7.036;2024-01-30T03:01:43;3.20;99.90
15426;DHT22;7812;50.072;7.036;2024-01-30T03:04:09;3.40;99.90
15426;DHT22;7812;50.072;7.036;2024-01-30T03:06:34;3.50;99.90
15426;DHT22;7812;50.072;7.036;2024-01-30T03:09:03;3.50;99.90
15426;DHT22;7812;50.072;7.036;2024-01-30T03:11:30;3.10;99.90
15426;DHT22;7812;50.072;7.036;2024-01-30T03:13:56;2.90;99.90
15426;DHT22;7812;50.072;7.036;2024-01-30T03:16:22;2.90;99.90
15426;DHT22;7812;50.072;7.036;2024-01-30T03:18:47;2.90;99.90
15426;DHT22;7812;50.072;7.036;2024-01-30T03:21:13;2.80;99.90
15426;DHT22;7812;50.072;7.036;2024-01-30T03:23:39;2.80;99.90
15426;DHT22;7812;50.072;7.036;2024-01-30T03:26:05;2.70;99.90
15426;DHT22;7812;50.072;7.036;2024-01-30T03:28:32;2.70;99.90
15426;DHT22;7812;50.072;7.036;2024-01-30T03:30:57;2.70;99.90
15426;DHT22;7812;50.072;7.036;2024-01-30T03:33:23;2.70;99.90
15426;DHT22;7812;50.072;7.036;2024-01-30T03:35:49;2.80;99.90
15426;DHT22;7812;50.072;7.036;2024-01-30T03:38:15;2.70;99.90
15426;DHT22;7812;50.072;7.036;2024-01-30T03:40:40;2.30;99.90
15426;DHT22;7812;50.072;7.036;2024-01-30T03:43:06;1.90;99.90
15426;DHT22;7812;50.072;7.036;2024-01-30T03:45:32;2.00;99.90
15426;DHT22;7812;50.072;7.036;2024-01-30T03:47:58;2.10;99.90
15426;DHT22;7812;50.072;7.036;2024-01-30T03:50:23;2.20;99.90
15426;DHT22;7812;50.072;7.036;2024-01-30T03:52:49;2.10;99.90
15426;DHT22;7812;50.072;7.036;2024-01-30T03:55:15;2.20;99.90
15426;DHT22;7812;50.072;7.036;2024-01-30T03:57:41;2.00;99.90
15426;DHT22;7812;50.072;7.036;2024-01-30T04:00:07;2.10;99.90
15426;DHT22;7812;50.072;7.036;2024-01-30T04:02:33;2.10;99.90
15426;DHT22;7812;50.072;7.036;2024-01-30T04:05:00;2.30;99.90
15426;DHT22;7812;50.072;7.036;2024-01-30T04:07:26;2.60;99.90
15426;DHT22;7812;50.072;7.036;2024-01-30T04:09:52;2.70;99.90
15426;DHT22;7812;50.072;7.036;2024-01-30T04:12:17;2.80;99.90
15426;DHT22;7812;50.072;7.036;2024-01-30T04:14:43;2.70;99.90
15426;DHT22;7812;50.072;7.036;2024-01-30T04:17:09;2.70;99.90
15426;DHT22;7812;50.072;7.036;2024-01-30T04:19:37;2.80;99.90
15426;DHT22;7812;50.072;7.036;2024-01-30T04:22:04;2.70;99.90
15426;DHT22;7812;50.072;7.036;2024-01-30T04:24:29;2.70;99.90
15426;DHT22;7812;50.072;7.036;2024-01-30T04:26:55;2.70;99.90
15426;DHT22;7812;50.072;7.036;2024-01-30T04:29:21;2.70;99.90
15426;DHT22;7812;50.072;7.036;2024-01-30T04:31:48;2.20;99.90
15426;DHT22;7812;50.072;7.036;2024-01-30T04:34:13;2.50;99.90
15426;DHT22;7812;50.072;7.036;2024-01-30T04:36:39;2.70;99.90
15426;DHT22;7812;50.072;7.036;2024-01-30T04:39:05;2.90;99.90
15426;DHT22;7812;50.072;7.036;2024-01-30T04:41:30;3.00;99.90
15426;DHT22;7812;50.072;7.036;2024-01-30T04:43:57;2.90;99.90
15426;DHT22;7812;50.072;7.036;2024-01-30T04:46:23;2.80;99.90
15426;DHT22;7812;50.072;7.036;2024-01-30T04:48:49;2.60;99.90
15426;DHT22;7812;50.072;7.036;2024-01-30T04:51:15;2.40;99.90
15426;DHT22;7812;50.072;7.036;2024-01-30T04:53:40;2.30;99.90
15426;DHT22;7812;50.072;7.036;2024-01-30T04:56:06;2.30;99.90
15426;DHT22;7812;50.072;7.036;2024-01-30T04:58:32;2.30;99.90
15426;DHT22;7812;50.072;7.036;2024-01-30T05:00:57;2.30;99.90
15426;DHT22;7812;50.072;7.036;2024-01-30T05:03:23;2.40;99.90
15426;DHT22;7812;50.072;7.036;2024-01-30T05:05:49;2.60;99.90
15426;DHT22;7812;50.072;7.036;2024-01-30T05:08:15;2.80;99.90
15426;DHT22;7812;50.072;7.036;2024-01-30T05:10:41;2.70;99.90
15426;DHT22;7812;50.072;7.036;2024-01-30T05:13:07;2.80;99.90
15426;DHT22;7812;50.072;7.036;2024-01-30T05:15:32;2.90;99.90
15426;DHT22;7812;50.072;7.036;2024-01-30T05:17:58;2.60;99.90
15426;DHT22;7812;50.072;7.036;2024-01-30T05:20:23;2.70;99.90
15426;DHT22;7812;50.072;7.036;2024-01-30T05:22:49;2.80;99.90
15426;DHT22;7812;50.072;7.036;2024-01-30T05:25:15;2.80;99.90
15426;DHT22;7812;50.072;7.036;2024-01-30T05:27:41;2.90;99.90
15426;DHT22;7812;50.072;7.036;2024-01-30T05:30:07;3.10;99.90
15426;DHT22;7812;50.072;7.036;2024-01-30T05:32:33;3.10;99.90
15426;DHT22;7812;50.072;7.036;2024-01-30T05:34:59;3.10;99.90
15426;DHT22;7812;50.072;7.036;2024-01-30T05:37:25;3.00;99.90
15426;DHT22;7812;50.072;7.036;2024-01-30T05:39:50;2.90;99.90
15426;DHT22;7812;50.072;7.036;2024-01-30T05:42:16;3.00;99.90
15426;DHT22;7812;50.072;7.036;2024-01-30T05:44:42;3.10;99.90
15426;DHT22;7812;50.072;7.036;2024-01-30T05:47:08;3.20;99.90
15426;DHT22;7812;50.072;7.036;2024-01-30T05:49:34;3.20;99.90
15426;DHT22;7812;50.072;7.036;2024-01-30T05:52:02;3.20;99.90
15426;DHT22;7812;50.072;7.036;2024-01-30T05:54:27;3.10;99.90
15426;DHT22;7812;50.072;7.036;2024-01-30T05:56:53;3.10;99.90
15426;DHT22;7812;50.072;7.036;2024-01-30T05:59:19;3.20;99.90
15426;DHT22;7812;50.072;7.036;2024-01-30T06:01:48;3.10;99.90
15426;DHT22;7812;50.072;7.036;2024-01-30T06:04:14;3.00;99.90
15426;DHT22;7812;50.072;7.036;2024-01-30T06:06:40;2.90;99.90
15426;DHT22;7812;50.072;7.036;2024-01-30T06:09:06;2.80;99.90
15426;DHT22;7812;50.072;7.036;2024-01-30T06:11:34;2.90;99.90
15426;DHT22;7812;50.072;7.036;2024-01-30T06:14:00;2.80;99.90
15426;DHT22;7812;50.072;7.036;2024-01-30T06:16:26;2.50;99.90
15426;DHT22;7812;50.072;7.036;2024-01-30T06:18:55;2.00;99.90
15426;DHT22;7812;50.072;7.036;2024-01-30T06:21:21;1.50;99.90
15426;DHT22;7812;50.072;7.036;2024-01-30T06:23:47;1.60;99.90
15426;DHT22;7812;50.072;7.036;2024-01-30T06:26:13;1.90;99.90
15426;DHT22;7812;50.072;7.036;2024-01-30T06:28:38;2.10;99.90
15426;DHT22;7812;50.072;7.036;2024-01-30T06:31:04;2.00;99.90
15426;DHT22;7812;50.072;7.036;2024-01-30T06:33:30;2.00;99.90
15426;DHT22;7812;50.072;7.036;2024-01-30T06:35:55;2.10;99.90
15426;DHT22;7812;50.072;7.036;2024-01-30T06:38:21;2.30;99.90
15426;DHT22;7812;50.072;7.036;2024-01-30T06:40:47;2.40;99.90
15426;DHT22;7812;50.072;7.036;2024-01-30T06:43:12;2.50;99.90
15426;DHT22;7812;50.072;7.036;2024-01-30T06:45:38;2.70;99.90
15426;DHT22;7812;50.072;7.036;2024-01-30T06:48:04;2.80;99.90
15426;DHT22;7812;50.072;7.036;2024-01-30T06:50:30;2.80;99.90
15426;DHT22;7812;50.072;7.036;2024-01-30T06:52:55;3.00;99.90
15426;DHT22;7812;50.072;7.036;2024-01-30T06:55:21;3.00;99.90
15426;DHT22;7812;50.072;7.036;2024-01-30T06:57:47;3.10;99.90
15426;DHT22;7812;50.072;7.036;2024-01-30T07:00:13;3.20;99.90
15426;DHT22;7812;50.072;7.036;2024-01-30T07:02:39;3.30;99.90
15426;DHT22;7812;50.072;7.036;2024-01-30T07:05:05;3.20;99.90
15426;DHT22;7812;50.072;7.036;2024-01-30T07:07:31;2.90;99.90
15426;DHT22;7812;50.072;7.036;2024-01-30T07:09:56;2.80;99.90
15426;DHT22;7812;50.072;7.036;2024-01-30T07:12:23;2.90;99.90
15426;DHT22;7812;50.072;7.036;2024-01-30T07:14:51;3.00;99.90
15426;DHT22;7812;50.072;7.036;2024-01-30T07:17:17;3.10;99.90
15426;DHT22;7812;50.072;7.036;2024-01-30T07:19:43;3.20;99.90
15426;DHT22;7812;50.072;7.036;2024-01-30T07:22:08;3.10;99.90
15426;DHT22;7812;50.072;7.036;2024-01-30T07:24:34;2.90;99.90
15426;DHT22;7812;50.072;7.036;2024-01-30T07:27:00;3.10;99.90
15426;DHT22;7812;50.072;7.036;2024-01-30T07:29:25;3.30;99.90
15426;DHT22;7812;50.072;7.036;2024-01-30T07:31:51;3.00;99.90
15426;DHT22;7812;50.072;7.036;2024-01-30T07:34:17;3.00;99.90
15426;DHT22;7812;50.072;7.036;2024-01-30T07:36:43;3.20;99.90
15426;DHT22;7812;50.072;7.036;2024-01-30T07:39:08;3.40;99.90
15426;DHT22;7812;50.072;7.036;2024-01-30T07:41:35;3.40;99.90
15426;DHT22;7812;50.072;7.036;2024-01-30T07:44:02;3.00;99.90
15426;DHT22;7812;50.072;7.036;2024-01-30T07:46:27;2.50;99.90
15426;DHT22;7812;50.072;7.036;2024-01-30T07:48:53;2.80;99.90
15426;DHT22;7812;50.072;7.036;2024-01-30T07:51:19;3.20;99.90
15426;DHT22;7812;50.072;7.036;2024-01-30T07:53:45;3.50;99.90
15426;DHT22;7812;50.072;7.036;2024-01-30T07:56:11;3.80;99.90
15426;DHT22;7812;50.072;7.036;2024-01-30T07:58:37;3.80;99.90
15426;DHT22;7812;50.072;7.036;2024-01-30T08:01:03;3.20;99.90
15426;DHT22;7812;50.072;7.036;2024-01-30T08:03:28;3.40;99.90
15426;DHT22;7812;50.072;7.036;2024-01-30T08:05:54;3.60;99.90
15426;DHT22;7812;50.072;7.036;2024-01-30T08:08:20;3.70;99.90
15426;DHT22;7812;50.072;7.036;2024-01-30T08:10:46;3.90;99.90
15426;DHT22;7812;50.072;7.036;2024-01-30T08:13:12;4.00;99.90
15426;DHT22;7812;50.072;7.036;2024-01-30T08:15:37;3.70;99.90
15426;DHT22;7812;50.072;7.036;2024-01-30T08:18:03;2.80;99.90
15426;DHT22;7812;50.072;7.036;2024-01-30T08:20:30;3.30;99.90
15426;DHT22;7812;50.072;7.036;2024-01-30T08:22:56;3.80;99.90
15426;DHT22;7812;50.072;7.036;2024-01-30T08:25:21;4.30;99.90
15426;DHT22;7812;50.072;7.036;2024-01-30T08:27:47;4.70;99.90
15426;DHT22;7812;50.072;7.036;2024-01-30T08:30:14;3.20;99.90
15426;DHT22;7812;50.072;7.036;2024-01-30T08:32:39;2.70;99.90
15426;DHT22;7812;50.072;7.036;2024-01-30T08:35:08;2.50;99.90
15426;DHT22;7812;50.072;7.036;2024-01-30T08:37:34;2.30;99.90
15426;DHT22;7812;50.072;7.036;2024-01-30T08:40:00;2.20;99.90
15426;DHT22;7812;50.072;7.036;2024-01-30T08:42:27;2.60;99.90
15426;DHT22;7812;50.072;7.036;2024-01-30T08:44:53;2.70;99.90
15426;DHT22;7812;50.072;7.036;2024-01-30T08:47:19;2.40;99.90
15426;DHT22;7812;50.072;7.036;2024-01-30T08:49:45;3.10;99.90
15426;DHT22;7812;50.072;7.036;2024-01-30T08:52:11;3.90;99.90
15426;DHT22;7812;50.072;7.036;2024-01-30T08:54:36;4.70;99.90
15426;DHT22;7812;50.072;7.036;2024-01-30T08:57:02;5.00;99.90
15426;DHT22;7812;50.072;7.036;2024-01-30T08:59:29;5.30;99.90
15426;DHT22;7812;50.072;7.036;2024-01-30T09:01:55;5.20;99.90
15426;DHT22;7812;50.072;7.036;2024-01-30T09:04:23;5.30;99.90
15426;DHT22;7812;50.072;7.036;2024-01-30T09:06:49;5.00;99.90
15426;DHT22;7812;50.072;7.036;2024-01-30T09:09:15;4.60;99.90
15426;DHT22;7812;50.072;7.036;2024-01-30T09:11:41;4.70;99.90
15426;DHT22;7812;50.072;7.036;2024-01-30T09:14:07;4.60;99.90
15426;DHT22;7812;50.072;7.036;2024-01-30T09:16:32;4.40;99.90
15426;DHT22;7812;50.072;7.036;2024-01-30T09:18:58;3.90;99.90
15426;DHT22;7812;50.072;7.036;2024-01-30T09:21:24;3.50;99.90
15426;DHT22;7812;50.072;7.036;2024-01-30T09:23:51;3.20;99.90
15426;DHT22;7812;50.072;7.036;2024-01-30T09:26:17;3.10;99.90
15426;DHT22;7812;50.072;7.036;2024-01-30T09:28:43;3.60;99.90
15426;DHT22;7812;50.072;7.036;2024-01-30T09:31:12;4.00;99.90
15426;DHT22;7812;50.072;7.036;2024-01-30T09:33:38;4.70;99.90
15426;DHT22;7812;50.072;7.036;2024-01-30T09:36:05;5.00;99.90
15426;DHT22;7812;50.072;7.036;2024-01-30T09:38:31;5.20;99.90
15426;DHT22;7812;50.072;7.036;2024-01-30T09:41:03;5.40;99.90
15426;DHT22;7812;50.072;7.036;2024-01-30T09:43:33;5.20;99.90
15426;DHT22;7812;50.072;7.036;2024-01-30T09:46:02;4.70;99.90
15426;DHT22;7812;50.072;7.036;2024-01-30T09:48:30;4.40;99.90
15426;DHT22;7812;50.072;7.036;2024-01-30T09:50:57;4.50;99.90
15426;DHT22;7812;50.072;7.036;2024-01-30T09:53:23;4.70;99.90
15426;DHT22;7812;50.072;7.036;2024-01-30T09:55:50;4.90;99.90
15426;DHT22;7812;50.072;7.036;2024-01-30T09:58:16;4.60;99.90
15426;DHT22;7812;50.072;7.036;2024-01-30T10:00:42;4.30;99.90
15426;DHT22;7812;50.072;7.036;2024-01-30T10:03:08;3.80;99.90
15426;DHT22;7812;50.072;7.036;2024-01-30T10:05:36;4.20;99.90
15426;DHT22;7812;50.072;7.036;2024-01-30T10:08:06;4.70;99.90
15426;DHT22;7812;50.072;7.036;2024-01-30T10:10:33;4.00;99.90
15426;DHT22;7812;50.072;7.036;2024-01-30T10:12:59;3.70;99.90
15426;DHT22;7812;50.072;7.036;2024-01-30T10:15:26;3.50;99.90
15426;DHT22;7812;50.072;7.036;2024-01-30T10:17:53;3.70;99.90
15426;DHT22;7812;50.072;7.036;2024-01-30T10:20:19;3.90;99.90
15426;DHT22;7812;50.072;7.036;2024-01-30T10:22:45;4.20;99.90
15426;DHT22;7812;50.072;7.036;2024-01-30T10:25:11;4.80;99.90
15426;DHT22;7812;50.072;7.036;2024-01-30T10:27:39;4.50;99.90
15426;DHT22;7812;50.072;7.036;2024-01-30T10:30:05;4.90;99.90
15426;DHT22;7812;50.072;7.036;2024-01-30T10:32:31;5.20;99.90
15426;DHT22;7812;50.072;7.036;2024-01-30T10:34:57;5.00;99.90
15426;DHT22;7812;50.072;7.036;2024-01-30T10:37:25;5.30;99.90
15426;DHT22;7812;50.072;7.036;2024-01-30T10:39:53;5.30;99.90
15426;DHT22;7812;50.072;7.036;2024-01-30T10:42:25;5.30;99.90
15426;DHT22;7812;50.072;7.036;2024-01-30T10:47:28;5.70;99.90
15426;DHT22;7812;50.072;7.036;2024-01-30T10:49:55;5.40;99.90
15426;DHT22;7812;50.072;7.036;2024-01-30T10:52:23;5.10;99.90
15426;DHT22;7812;50.072;7.036;2024-01-30T10:54:51;5.00;99.90
15426;DHT22;7812;50.072;7.036;2024-01-30T10:57:18;5.00;99.90
15426;DHT22;7812;50.072;7.036;2024-01-30T10:59:44;5.30;99.90
15426;DHT22;7812;50.072;7.036;2024-01-30T11:02:11;5.50;99.90
15426;DHT22;7812;50.072;7.036;2024-01-30T11:04:37;5.40;99.90
15426;DHT22;7812;50.072;7.036;2024-01-30T11:07:14;5.20;99.90
15426;DHT22;7812;50.072;7.036;2024-01-30T11:09:40;5.40;99.90
15426;DHT22;7812;50.072;7.036;2024-01-30T11:12:12;5.80;99.90
15426;DHT22;7812;50.072;7.036;2024-01-30T11:14:38;5.30;99.90
15426;DHT22;7812;50.072;7.036;2024-01-30T11:17:05;5.20;99.90
15426;DHT22;7812;50.072;7.036;2024-01-30T11:19:31;5.20;99.90
15426;DHT22;7812;50.072;7.036;2024-01-30T11:21:57;5.00;99.90
15426;DHT22;7812;50.072;7.036;2024-01-30T11:24:24;5.00;99.90
15426;DHT22;7812;50.072;7.036;2024-01-30T11:26:55;5.40;99.90
15426;DHT22;7812;50.072;7.036;2024-01-30T11:29:26;5.80;99.90
15426;DHT22;7812;50.072;7.036;2024-01-30T11:31:55;6.20;99.90
15426;DHT22;7812;50.072;7.036;2024-01-30T11:34:21;7.10;99.90
15426;DHT22;7812;50.072;7.036;2024-01-30T11:36:59;6.80;99.90
15426;DHT22;7812;50.072;7.036;2024-01-30T11:39:29;7.70;99.90
15426;DHT22;7812;50.072;7.036;2024-01-30T11:41:56;8.30;99.90
15426;DHT22;7812;50.072;7.036;2024-01-30T11:44:23;8.60;99.90
15426;DHT22;7812;50.072;7.036;2024-01-30T11:46:49;8.10;99.90
15426;DHT22;7812;50.072;7.036;2024-01-30T11:49:16;8.00;99.90
15426;DHT22;7812;50.072;7.036;2024-01-30T11:51:42;7.20;99.90
15426;DHT22;7812;50.072;7.036;2024-01-30T11:54:08;6.70;99.90
15426;DHT22;7812;50.072;7.036;2024-01-30T11:56:34;6.80;99.90
15426;DHT22;7812;50.072;7.036;2024-01-30T11:59:01;6.90;99.90
15426;DHT22;7812;50.072;7.036;2024-01-30T12:01:27;6.90;99.90
15426;DHT22;7812;50.072;7.036;2024-01-30T12:03:53;6.80;99.90
15426;DHT22;7812;50.072;7.036;2024-01-30T12:06:18;6.60;99.90
15426;DHT22;7812;50.072;7.036;2024-01-30T12:08:56;6.20;99.90
15426;DHT22;7812;50.072;7.036;2024-01-30T12:11:22;6.30;99.90
15426;DHT22;7812;50.072;7.036;2024-01-30T12:13:48;6.00;99.90
15426;DHT22;7812;50.072;7.036;2024-01-30T12:16:15;5.80;99.90
15426;DHT22;7812;50.072;7.036;2024-01-30T12:18:40;6.10;99.90
15426;DHT22;7812;50.072;7.036;2024-01-30T12:21:06;6.30;99.90
15426;DHT22;7812;50.072;7.036;2024-01-30T12:23:35;6.00;99.90
15426;DHT22;7812;50.072;7.036;2024-01-30T12:26:01;6.30;99.90
15426;DHT22;7812;50.072;7.036;2024-01-30T12:28:29;6.30;99.90
15426;DHT22;7812;50.072;7.036;2024-01-30T12:31:05;6.50;99.90
15426;DHT22;7812;50.072;7.036;2024-01-30T12:33:31;6.70;99.90
15426;DHT22;7812;50.072;7.036;2024-01-30T12:35:57;6.60;99.90
15426;DHT22;7812;50.072;7.036;2024-01-30T12:38:27;6.60;99.90
15426;DHT22;7812;50.072;7.036;2024-01-30T12:40:56;6.80;99.90
15426;DHT22;7812;50.072;7.036;2024-01-30T12:43:23;6.60;99.90
15426;DHT22;7812;50.072;7.036;2024-01-30T12:45:50;6.40;99.90
15426;DHT22;7812;50.072;7.036;2024-01-30T12:48:15;6.10;99.90
15426;DHT22;7812;50.072;7.036;2024-01-30T12:50:41;6.40;99.90
15426;DHT22;7812;50.072;7.036;2024-01-30T12:53:07;6.80;99.90
15426;DHT22;7812;50.072;7.036;2024-01-30T12:55:34;7.10;99.90
15426;DHT22;7812;50.072;7.036;2024-01-30T12:58:00;7.40;99.90
15426;DHT22;7812;50.072;7.036;2024-01-30T13:00:26;7.20;99.90
15426;DHT22;7812;50.072;7.036;2024-01-30T13:02:52;7.20;99.90
15426;DHT22;7812;50.072;7.036;2024-01-30T13:05:18;7.10;99.90
15426;DHT22;7812;50.072;7.036;2024-01-30T13:07:44;7.30;99.90
15426;DHT22;7812;50.072;7.036;2024-01-30T13:10:10;7.40;99.90
15426;DHT22;7812;50.072;7.036;2024-01-30T13:12:35;7.20;99.90
15426;DHT22;7812;50.072;7.036;2024-01-30T13:15:02;6.90;99.90
15426;DHT22;7812;50.072;7.036;2024-01-30T13:17:30;6.70;99.90
15426;DHT22;7812;50.072;7.036;2024-01-30T13:19:56;6.70;99.90
15426;DHT22;7812;50.072;7.036;2024-01-30T13:22:22;6.90;99.90
15426;DHT22;7812;50.072;7.036;2024-01-30T13:24:48;6.60;99.90
15426;DHT22;7812;50.072;7.036;2024-01-30T13:27:13;6.60;99.90
15426;DHT22;7812;50.072;7.036;2024-01-30T13:29:39;6.70;99.90
15426;DHT22;7812;50.072;7.036;2024-01-30T13:32:05;6.90;99.90
15426;DHT22;7812;50.072;7.036;2024-01-30T13:34:31;7.30;99.90
15426;DHT22;7812;50.072;7.036;2024-01-30T13:36:57;7.60;99.90
15426;DHT22;7812;50.072;7.036;2024-01-30T13:39:22;7.30;99.90
15426;DHT22;7812;50.072;7.036;2024-01-30T13:41:48;7.00;99.90
15426;DHT22;7812;50.072;7.036;2024-01-30T13:44:15;7.00;99.90
15426;DHT22;7812;50.072;7.036;2024-01-30T13:46:42;7.20;99.90
15426;DHT22;7812;50.072;7.036;2024-01-30T13:49:08;7.60;99.90
15426;DHT22;7812;50.072;7.036;2024-01-30T13:51:33;7.80;99.90
15426;DHT22;7812;50.072;7.036;2024-01-30T13:53:59;7.60;99.90
15426;DHT22;7812;50.072;7.036;2024-01-30T13:56:25;7.80;99.90
15426;DHT22;7812;50.072;7.036;2024-01-30T13:58:52;7.40;99.90
15426;DHT22;7812;50.072;7.036;2024-01-30T14:01:18;7.00;99.90
15426;DHT22;7812;50.072;7.036;2024-01-30T14:03:44;7.00;99.90
15426;DHT22;7812;50.072;7.036;2024-01-30T14:06:11;7.30;99.90
15426;DHT22;7812;50.072;7.036;2024-01-30T14:08:37;7.60;99.90
15426;DHT22;7812;50.072;7.036;2024-01-30T14:11:02;7.40;99.90
15426;DHT22;7812;50.072;7.036;2024-01-30T14:13:29;7.50;99.90
15426;DHT22;7812;50.072;7.036;2024-01-30T14:15:56;7.60;99.90
15426;DHT22;7812;50.072;7.036;2024-01-30T14:18:22;7.30;99.90
15426;DHT22;7812;50.072;7.036;2024-01-30T14:20:48;7.50;99.90
15426;DHT22;7812;50.072;7.036;2024-01-30T14:23:14;7.80;99.90
15426;DHT22;7812;50.072;7.036;2024-01-30T14:25:40;8.00;99.90
15426;DHT22;7812;50.072;7.036;2024-01-30T14:28:06;8.10;99.90
15426;DHT22;7812;50.072;7.036;2024-01-30T14:30:31;8.10;99.90
15426;DHT22;7812;50.072;7.036;2024-01-30T14:32:57;8.20;99.90
15426;DHT22;7812;50.072;7.036;2024-01-30T14:35:23;8.20;99.90
15426;DHT22;7812;50.072;7.036;2024-01-30T14:37:49;8.10;99.90
15426;DHT22;7812;50.072;7.036;2024-01-30T14:40:15;8.10;99.90
15426;DHT22;7812;50.072;7.036;2024-01-30T14:42:40;8.10;99.90
15426;DHT22;7812;50.072;7.036;2024-01-30T14:45:06;8.20;99.90
15426;DHT22;7812;50.072;7.036;2024-01-30T14:47:33;8.30;99.90
15426;DHT22;7812;50.072;7.036;2024-01-30T14:49:58;8.10;99.90
15426;DHT22;7812;50.072;7.036;2024-01-30T14:52:24;8.10;99.90
15426;DHT22;7812;50.072;7.036;2024-01-30T14:54:50;8.20;99.90
15426;DHT22;7812;50.072;7.036;2024-01-30T14:57:17;8.30;99.90
15426;DHT22;7812;50.072;7.036;2024-01-30T14:59:45;8.40;99.90
15426;DHT22;7812;50.072;7.036;2024-01-30T15:02:11;8.30;99.90
15426;DHT22;7812;50.072;7.036;2024-01-30T15:04:36;8.40;99.90
15426;DHT22;7812;50.072;7.036;2024-01-30T15:07:02;8.40;99.90
15426;DHT22;7812;50.072;7.036;2024-01-30T15:09:28;8.50;99.90
15426;DHT22;7812;50.072;7.036;2024-01-30T15:11:54;8.50;99.90
15426;DHT22;7812;50.072;7.036;2024-01-30T15:14:19;8.30;99.90
15426;DHT22;7812;50.072;7.036;2024-01-30T15:16:45;8.30;99.90
15426;DHT22;7812;50.072;7.036;2024-01-30T15:19:11;8.30;99.90
15426;DHT22;7812;50.072;7.036;2024-01-30T15:21:37;8.30;99.90
15426;DHT22;7812;50.072;7.036;2024-01-30T15:24:03;8.40;99.90
15426;DHT22;7812;50.072;7.036;2024-01-30T15:26:29;8.30;99.90
15426;DHT22;7812;50.072;7.036;2024-01-30T15:28:54;8.40;99.90
15426;DHT22;7812;50.072;7.036;2024-01-30T15:31:20;8.40;99.90
15426;DHT22;7812;50.072;7.036;2024-01-30T15:33:47;8.40;99.90
15426;DHT22;7812;50.072;7.036;2024-01-30T15:36:13;8.40;99.90
15426;DHT22;7812;50.072;7.036;2024-01-30T15:38:39;8.40;99.90
15426;DHT22;7812;50.072;7.036;2024-01-30T15:41:04;8.40;99.90
15426;DHT22;7812;50.072;7.036;2024-01-30T15:43:30;8.30;99.90
15426;DHT22;7812;50.072;7.036;2024-01-30T15:45:58;8.50;99.90
15426;DHT22;7812;50.072;7.036;2024-01-30T15:48:24;8.60;99.90
15426;DHT22;7812;50.072;7.036;2024-01-30T15:50:50;8.70;99.90
15426;DHT22;7812;50.072;7.036;2024-01-30T15:53:16;8.80;99.90
15426;DHT22;7812;50.072;7.036;2024-01-30T15:55:41;9.00;99.90
15426;DHT22;7812;50.072;7.036;2024-01-30T15:58:07;8.70;99.90
15426;DHT22;7812;50.072;7.036;2024-01-30T16:00:33;8.70;99.90
15426;DHT22;7812;50.072;7.036;2024-01-30T16:02:59;8.50;99.90